createdAt,value
2018-02-25T00:02:03.880Z,92.00
2018-02-25T00:04:31.791Z,91.80
2018-02-25T00:06:59.239Z,93.50
2018-02-25T00:09:26.681Z,93.60
2018-02-25T00:11:54.909Z,93.90
2018-02-25T00:14:22.376Z,93.90
2018-02-25T00:16:49.828Z,93.40
2018-02-25T00:19:17.276Z,92.20
2018-02-25T00:21:44.733Z,93.20
2018-02-25T00:24:12.186Z,93.30
2018-02-25T00:26:39.648Z,93.70
2018-02-25T00:29:07.101Z,94.10
2018-02-25T00:31:35.414Z,93.30
2018-02-25T00:34:04.275Z,95.20
2018-02-25T00:36:31.727Z,95.10
2018-02-25T00:39:00.006Z,96.60
2018-02-25T00:41:28.026Z,96.40
2018-02-25T00:43:55.474Z,97.10
2018-02-25T00:46:23.698Z,98.10
2018-02-25T00:48:51.553Z,98.10
2018-02-25T00:51:19.000Z,98.10
2018-02-25T00:53:46.450Z,97.40
2018-02-25T00:56:14.366Z,95.90
2018-02-25T00:58:41.818Z,95.30
2018-02-25T01:01:09.287Z,96.20
2018-02-25T01:03:36.845Z,95.30
2018-02-25T01:06:04.684Z,94.90
2018-02-25T01:08:32.155Z,95.40
2018-02-25T01:10:59.630Z,94.60
2018-02-25T01:13:27.843Z,94.40
2018-02-25T01:15:55.313Z,94.40
2018-02-25T01:18:22.769Z,95.90
2018-02-25T01:20:50.213Z,95.80
2018-02-25T01:23:18.378Z,95.60
2018-02-25T01:25:45.825Z,94.60
2018-02-25T01:28:13.301Z,94.50
2018-02-25T01:30:40.754Z,94.90
2018-02-25T01:33:08.198Z,95.50
2018-02-25T01:35:35.645Z,95.80
2018-02-25T01:38:03.427Z,95.50
2018-02-25T01:40:31.432Z,95.80
2018-02-25T01:42:59.301Z,95.70
2018-02-25T01:45:26.771Z,94.90
2018-02-25T01:47:54.221Z,94.60
2018-02-25T01:50:21.667Z,95.50
2018-02-25T01:52:49.153Z,95.80
2018-02-25T01:55:17.366Z,97.10
2018-02-25T01:57:45.363Z,97.10
2018-02-25T02:00:12.835Z,96.60
2018-02-25T02:02:40.284Z,96.20
2018-02-25T02:05:07.728Z,97.10
2018-02-25T02:07:35.193Z,98.20
2018-02-25T02:10:03.157Z,99.20
2018-02-25T02:12:31.026Z,99.90
2018-02-25T02:14:58.482Z,99.90
2018-02-25T02:17:26.099Z,99.90
2018-02-25T02:19:54.297Z,99.90
2018-02-25T02:22:21.749Z,99.90
2018-02-25T02:24:49.198Z,99.90
2018-02-25T02:27:16.649Z,99.90
2018-02-25T02:29:44.142Z,99.90
2018-02-25T02:32:11.601Z,99.90
2018-02-25T02:34:39.048Z,99.90
2018-02-25T02:37:06.503Z,99.90
2018-02-25T02:39:34.843Z,99.90
2018-02-25T02:42:03.154Z,99.90
2018-02-25T02:44:30.602Z,99.90
2018-02-25T02:46:59.890Z,99.90
2018-02-25T02:49:27.337Z,99.90
2018-02-25T02:51:55.225Z,99.90
2018-02-25T02:54:22.676Z,99.90
2018-02-25T02:56:50.725Z,99.90
2018-02-25T02:59:18.182Z,99.90
2018-02-25T03:01:45.629Z,99.90
2018-02-25T03:04:13.094Z,99.90
2018-02-25T03:06:40.552Z,99.90
2018-02-25T03:09:08.539Z,99.90
2018-02-25T03:11:36.014Z,99.90
2018-02-25T03:14:03.503Z,99.90
2018-02-25T03:16:31.762Z,99.90
2018-02-25T03:18:59.214Z,99.90
2018-02-25T03:21:26.674Z,99.90
2018-02-25T03:23:54.907Z,99.90
2018-02-25T03:26:22.368Z,99.90
2018-02-25T03:28:49.837Z,99.90
2018-02-25T03:31:17.406Z,99.90
2018-02-25T03:33:45.317Z,99.90
2018-02-25T03:36:12.808Z,99.90
2018-02-25T03:38:40.596Z,99.90
2018-02-25T03:41:08.622Z,99.90
2018-02-25T03:43:37.954Z,99.90
2018-02-25T03:46:08.011Z,99.90
2018-02-25T03:48:36.223Z,99.90
2018-02-25T03:51:04.142Z,99.90
2018-02-25T03:53:32.389Z,99.90
2018-02-25T03:55:59.858Z,99.90
2018-02-25T03:58:27.306Z,99.90
2018-02-25T04:00:54.781Z,99.90
2018-02-25T04:03:22.993Z,99.90
2018-02-25T04:05:50.530Z,99.90
2018-02-25T04:08:17.987Z,99.90
2018-02-25T04:10:46.716Z,99.90
2018-02-25T04:13:14.938Z,99.90
2018-02-25T04:15:43.148Z,99.90
2018-02-25T04:18:10.631Z,99.90
2018-02-25T04:20:38.198Z,99.90
2018-02-25T04:23:06.882Z,99.90
2018-02-25T04:25:34.345Z,99.90
2018-02-25T04:28:01.925Z,99.90
2018-02-25T04:30:29.346Z,99.90
2018-02-25T04:32:56.801Z,99.90
2018-02-25T04:35:24.299Z,99.90
2018-02-25T04:37:52.528Z,99.90
2018-02-25T04:40:20.562Z,99.90
2018-02-25T04:42:48.034Z,99.90
2018-02-25T04:45:16.241Z,99.90
2018-02-25T04:47:43.707Z,99.90
2018-02-25T04:50:11.590Z,99.90
2018-02-25T04:52:39.895Z,99.90
2018-02-25T04:55:07.362Z,99.90
2018-02-25T04:57:35.551Z,99.90
2018-02-25T05:00:03.234Z,99.90
2018-02-25T05:02:30.725Z,99.90
2018-02-25T05:04:58.945Z,99.90
2018-02-25T05:07:26.876Z,99.90
2018-02-25T05:09:54.452Z,99.90
2018-02-25T05:12:22.032Z,99.90
2018-02-25T05:14:49.477Z,99.90
2018-02-25T05:17:17.375Z,99.90
2018-02-25T05:19:44.954Z,99.90
2018-02-25T05:22:13.607Z,99.90
2018-02-25T05:24:41.498Z,99.90
2018-02-25T05:27:09.738Z,99.90
2018-02-25T05:29:37.780Z,99.90
2018-02-25T05:32:05.234Z,99.90
2018-02-25T05:34:32.681Z,99.90
2018-02-25T05:37:00.162Z,99.90
2018-02-25T05:39:27.669Z,99.90
2018-02-25T05:41:59.354Z,99.90
2018-02-25T05:44:27.339Z,99.90
2018-02-25T05:46:55.410Z,99.90
2018-02-25T05:49:22.870Z,99.90
2018-02-25T05:51:50.318Z,99.90
2018-02-25T05:54:18.486Z,99.90
2018-02-25T05:56:46.411Z,99.90
2018-02-25T05:59:13.858Z,99.90
2018-02-25T06:01:41.332Z,99.90
2018-02-25T06:04:09.555Z,99.90
2018-02-25T06:06:37.327Z,99.90
2018-02-25T06:09:04.797Z,99.90
2018-02-25T06:11:32.597Z,99.90
2018-02-25T06:14:00.838Z,99.90
2018-02-25T06:16:28.294Z,99.90
2018-02-25T06:18:55.775Z,99.90
2018-02-25T06:21:24.033Z,99.90
2018-02-25T06:23:51.481Z,99.90
2018-02-25T06:26:19.034Z,99.90
2018-02-25T06:28:46.590Z,99.90
2018-02-25T06:31:14.049Z,99.90
2018-02-25T06:33:41.528Z,99.90
2018-02-25T06:36:09.811Z,99.90
2018-02-25T06:38:40.474Z,99.90
2018-02-25T06:41:07.954Z,99.90
2018-02-25T06:43:35.405Z,99.90
2018-02-25T06:46:03.289Z,99.90
2018-02-25T06:48:30.765Z,99.90
2018-02-25T06:50:58.735Z,99.90
2018-02-25T06:53:26.200Z,99.90
2018-02-25T06:55:54.449Z,99.90
2018-02-25T06:58:21.914Z,99.90
2018-02-25T07:00:49.956Z,99.90
2018-02-25T07:03:17.960Z,99.90
2018-02-25T07:05:45.413Z,99.90
2018-02-25T07:08:13.642Z,99.90
2018-02-25T07:10:41.239Z,99.90
2018-02-25T07:13:08.704Z,99.90
2018-02-25T07:15:36.862Z,97.40
2018-02-25T07:18:04.894Z,94.00
2018-02-25T07:20:32.362Z,91.20
2018-02-25T07:22:59.815Z,89.80
2018-02-25T07:25:27.279Z,92.00
2018-02-25T07:27:54.758Z,90.00
2018-02-25T07:30:22.214Z,85.60
2018-02-25T07:32:49.693Z,79.30
2018-02-25T07:35:17.944Z,73.10
2018-02-25T07:37:45.389Z,73.20
2018-02-25T07:40:12.862Z,72.40
2018-02-25T07:42:41.833Z,69.50
2018-02-25T07:45:09.301Z,69.50
2018-02-25T07:47:36.763Z,71.80
2018-02-25T07:50:04.221Z,70.10
2018-02-25T07:52:33.626Z,68.80
2018-02-25T07:55:01.083Z,68.70
2018-02-25T07:57:29.310Z,66.40
2018-02-25T07:59:56.825Z,66.40
2018-02-25T08:02:25.045Z,64.80
2018-02-25T08:04:56.603Z,63.70
2018-02-25T08:07:24.318Z,63.50
2018-02-25T08:09:51.849Z,60.00
2018-02-25T08:12:19.757Z,60.70
2018-02-25T08:14:47.209Z,61.20
2018-02-25T08:17:15.441Z,60.20
2018-02-25T08:19:42.909Z,60.20
2018-02-25T08:22:10.681Z,59.90
2018-02-25T08:24:38.135Z,58.70
2018-02-25T08:27:05.589Z,58.90
2018-02-25T08:29:33.050Z,59.90
2018-02-25T08:32:02.010Z,56.90
2018-02-25T08:34:29.468Z,56.90
2018-02-25T08:36:56.965Z,56.20
2018-02-25T08:39:24.426Z,54.00
2018-02-25T08:41:53.266Z,54.70
2018-02-25T08:44:20.751Z,54.60
2018-02-25T08:46:50.264Z,55.30
2018-02-25T08:49:17.717Z,55.30
2018-02-25T08:51:45.188Z,53.70
2018-02-25T08:54:13.438Z,53.30
2018-02-25T08:56:41.872Z,52.90
2018-02-25T08:59:09.973Z,52.90
2018-02-25T09:01:37.865Z,50.70
2018-02-25T09:04:05.338Z,51.30
2018-02-25T09:06:33.550Z,49.20
2018-02-25T09:09:01.002Z,49.20
2018-02-25T09:11:28.454Z,50.00
2018-02-25T09:13:57.263Z,50.10
2018-02-25T09:16:24.726Z,47.80
2018-02-25T09:18:52.174Z,46.40
2018-02-25T09:21:19.639Z,46.90
2018-02-25T09:23:47.965Z,46.70
2018-02-25T09:26:15.419Z,45.40
2018-02-25T09:28:42.869Z,45.10
2018-02-25T09:31:11.094Z,43.20
2018-02-25T09:33:38.569Z,43.20
2018-02-25T09:36:06.023Z,43.50
2018-02-25T09:38:34.061Z,42.90
2018-02-25T09:41:02.293Z,42.50
2018-02-25T09:43:30.568Z,42.80
2018-02-25T09:45:57.969Z,42.80
2018-02-25T09:48:25.851Z,42.20
2018-02-25T09:50:53.726Z,40.50
2018-02-25T09:53:21.233Z,40.60
2018-02-25T09:55:48.689Z,40.90
2018-02-25T09:58:16.150Z,40.20
2018-02-25T10:00:44.129Z,40.70
2018-02-25T10:03:11.809Z,39.50
2018-02-25T10:05:39.274Z,39.30
2018-02-25T10:08:06.753Z,39.70
2018-02-25T10:10:34.200Z,40.00
2018-02-25T10:13:03.328Z,38.40
2018-02-25T10:15:31.541Z,38.60
2018-02-25T10:17:59.019Z,38.50
2018-02-25T10:20:27.835Z,38.40
2018-02-25T10:22:56.114Z,37.40
2018-02-25T10:25:24.361Z,38.30
2018-02-25T10:27:51.951Z,38.30
2018-02-25T10:30:21.065Z,36.70
2018-02-25T10:32:49.622Z,36.70
2018-02-25T10:35:17.856Z,35.40
2018-02-25T10:37:45.820Z,35.40
2018-02-25T10:40:13.309Z,35.70
2018-02-25T10:42:41.612Z,37.00
2018-02-25T10:45:10.484Z,35.90
2018-02-25T10:47:38.840Z,35.20
2018-02-25T10:50:06.291Z,35.20
2018-02-25T10:52:33.754Z,35.40
2018-02-25T10:55:01.209Z,34.40
2018-02-25T10:57:28.685Z,33.60
2018-02-25T10:59:58.273Z,31.90
2018-02-25T11:02:26.715Z,31.90
2018-02-25T11:04:54.183Z,31.70
2018-02-25T11:07:22.202Z,31.80
2018-02-25T11:09:50.510Z,30.50
2018-02-25T11:12:17.977Z,30.40
2018-02-25T11:14:45.426Z,30.20
2018-02-25T11:17:15.680Z,30.60
2018-02-25T11:19:43.140Z,30.30
2018-02-25T11:22:10.589Z,30.20
2018-02-25T11:24:38.077Z,29.90
2018-02-25T11:27:06.282Z,29.70
2018-02-25T11:29:34.214Z,29.60
2018-02-25T11:32:02.911Z,29.20
2018-02-25T11:34:31.542Z,28.20
2018-02-25T11:36:58.991Z,28.20
2018-02-25T11:39:26.457Z,28.20
2018-02-25T11:41:53.914Z,28.30
2018-02-25T11:44:21.646Z,28.20
2018-02-25T11:46:49.095Z,27.80
2018-02-25T11:49:16.538Z,26.10
2018-02-25T11:51:45.161Z,27.10
2018-02-25T11:54:12.617Z,27.10
2018-02-25T11:56:40.070Z,26.80
2018-02-25T11:59:07.589Z,27.80
2018-02-25T12:01:35.878Z,27.90
2018-02-25T12:04:03.362Z,27.90
2018-02-25T12:06:31.108Z,27.00
2018-02-25T12:08:58.578Z,27.50
2018-02-25T12:11:26.655Z,27.50
2018-02-25T12:13:54.196Z,27.80
2018-02-25T12:16:21.769Z,27.00
2018-02-25T12:18:49.318Z,27.10
2018-02-25T12:21:17.298Z,28.60
2018-02-25T12:23:44.775Z,28.50
2018-02-25T12:26:12.299Z,27.90
2018-02-25T12:28:40.798Z,26.70
2018-02-25T12:31:08.620Z,26.00
2018-02-25T12:33:36.090Z,26.20
2018-02-25T12:36:04.260Z,28.50
2018-02-25T12:38:31.702Z,28.40
2018-02-25T12:41:00.543Z,27.60
2018-02-25T12:43:27.989Z,28.00
2018-02-25T12:45:56.169Z,28.40
2018-02-25T12:48:23.849Z,28.70
2018-02-25T12:50:51.705Z,28.30
2018-02-25T12:53:20.031Z,28.10
2018-02-25T12:55:47.503Z,28.20
2018-02-25T12:58:15.551Z,27.80
2018-02-25T13:00:44.030Z,27.20
2018-02-25T13:03:12.251Z,27.60
2018-02-25T13:05:39.721Z,27.60
2018-02-25T13:08:07.762Z,28.10
2018-02-25T13:10:35.226Z,28.50
2018-02-25T13:13:02.687Z,28.40
2018-02-25T13:15:30.192Z,28.30
2018-02-25T13:17:59.231Z,28.00
2018-02-25T13:20:26.685Z,28.00
2018-02-25T13:22:54.174Z,27.90
2018-02-25T13:25:22.228Z,27.90
2018-02-25T13:27:49.691Z,27.90
2018-02-25T13:30:17.361Z,28.40
2018-02-25T13:32:44.825Z,28.40
2018-02-25T13:35:14.817Z,27.70
2018-02-25T13:37:42.730Z,27.90
2018-02-25T13:40:10.944Z,27.40
2018-02-25T13:42:38.401Z,27.30
2018-02-25T13:45:06.019Z,27.20
2018-02-25T13:47:34.297Z,26.50
2018-02-25T13:50:02.514Z,26.40
2018-02-25T13:52:30.349Z,26.30
2018-02-25T13:54:57.898Z,26.00
2018-02-25T13:57:26.210Z,26.80
2018-02-25T13:59:53.842Z,26.70
2018-02-25T14:02:21.568Z,27.30
2018-02-25T14:04:49.066Z,28.30
2018-02-25T14:07:16.493Z,28.40
2018-02-25T14:09:44.725Z,28.50
2018-02-25T14:12:12.781Z,28.50
2018-02-25T14:14:41.015Z,28.80
2018-02-25T14:17:09.229Z,28.00
2018-02-25T14:19:36.675Z,27.90
2018-02-25T14:22:04.581Z,27.30
2018-02-25T14:24:32.241Z,27.40
2018-02-25T14:27:00.889Z,27.00
2018-02-25T14:29:28.372Z,27.60
2018-02-25T14:31:56.294Z,26.80
2018-02-25T14:34:23.749Z,26.80
2018-02-25T14:36:51.302Z,27.50
2018-02-25T14:39:19.517Z,27.60
2018-02-25T14:41:47.847Z,27.60
2018-02-25T14:44:16.083Z,27.20
2018-02-25T14:46:43.533Z,27.10
2018-02-25T14:49:11.609Z,27.30
2018-02-25T14:51:44.572Z,27.40
2018-02-25T14:54:12.617Z,27.00
2018-02-25T14:56:40.692Z,27.70
2018-02-25T14:59:08.133Z,27.60
2018-02-25T15:01:35.679Z,27.70
2018-02-25T15:04:03.889Z,27.90
2018-02-25T15:06:31.345Z,27.80
2018-02-25T15:08:58.951Z,28.10
2018-02-25T15:11:26.548Z,28.30
2018-02-25T15:13:54.019Z,28.50
2018-02-25T15:16:22.098Z,28.20
2018-02-25T15:18:49.572Z,28.00
2018-02-25T15:21:17.044Z,28.00
2018-02-25T15:23:44.834Z,28.30
2018-02-25T15:26:13.100Z,28.40
2018-02-25T15:28:42.376Z,28.30
2018-02-25T15:31:09.817Z,28.20
2018-02-25T15:33:37.370Z,28.10
2018-02-25T15:36:05.382Z,28.40
2018-02-25T15:38:33.618Z,29.20
2018-02-25T15:41:01.174Z,29.20
2018-02-25T15:43:29.107Z,30.60
2018-02-25T15:45:56.573Z,32.40
2018-02-25T15:48:24.020Z,33.70
2018-02-25T15:50:51.464Z,34.70
2018-02-25T15:53:19.685Z,35.90
2018-02-25T15:55:47.969Z,35.90
2018-02-25T15:58:15.420Z,36.50
2018-02-25T16:00:42.878Z,37.00
2018-02-25T16:03:10.333Z,37.20
2018-02-25T16:05:38.309Z,37.70
2018-02-25T16:08:06.477Z,37.90
2018-02-25T16:10:34.592Z,38.10
2018-02-25T16:13:02.856Z,38.60
2018-02-25T16:15:30.345Z,38.50
2018-02-25T16:17:57.804Z,38.90
2018-02-25T16:20:25.269Z,38.90
2018-02-25T16:22:53.641Z,39.10
2018-02-25T16:25:21.109Z,38.90
2018-02-25T16:27:48.600Z,39.00
2018-02-25T16:30:16.485Z,38.80
2018-02-25T16:32:45.225Z,39.20
2018-02-25T16:35:12.707Z,39.10
2018-02-25T16:37:41.664Z,39.20
2018-02-25T16:40:09.127Z,39.60
2018-02-25T16:42:36.662Z,40.00
2018-02-25T16:45:04.119Z,40.50
2018-02-25T16:47:31.582Z,40.90
2018-02-25T16:49:59.835Z,41.80
2018-02-25T16:52:28.058Z,42.60
2018-02-25T16:54:55.513Z,42.50
2018-02-25T16:57:23.910Z,43.00
2018-02-25T16:59:51.395Z,43.10
2018-02-25T17:02:19.690Z,43.70
2018-02-25T17:04:49.698Z,43.70
2018-02-25T17:07:17.927Z,43.90
2018-02-25T17:09:45.404Z,43.90
2018-02-25T17:12:12.845Z,44.00
2018-02-25T17:14:41.158Z,44.30
2018-02-25T17:17:09.387Z,44.60
2018-02-25T17:19:36.845Z,44.70
2018-02-25T17:22:04.298Z,45.00
2018-02-25T17:24:31.746Z,45.00
2018-02-25T17:27:00.079Z,45.10
2018-02-25T17:29:29.947Z,45.00
2018-02-25T17:31:57.417Z,45.10
2018-02-25T17:34:24.934Z,45.30
2018-02-25T17:36:52.357Z,45.00
2018-02-25T17:39:19.939Z,45.10
2018-02-25T17:41:47.782Z,44.70
2018-02-25T17:44:16.376Z,45.20
2018-02-25T17:46:44.613Z,45.20
2018-02-25T17:49:12.085Z,45.10
2018-02-25T17:51:40.312Z,45.70
2018-02-25T17:54:07.764Z,45.70
2018-02-25T17:56:35.228Z,45.80
2018-02-25T17:59:02.686Z,45.50
2018-02-25T18:01:30.134Z,45.70
2018-02-25T18:03:58.750Z,45.60
2018-02-25T18:06:26.205Z,45.50
2018-02-25T18:08:53.656Z,45.80
2018-02-25T18:11:21.729Z,45.50
2018-02-25T18:13:49.178Z,45.50
2018-02-25T18:16:16.625Z,45.50
2018-02-25T18:18:44.088Z,45.20
2018-02-25T18:21:12.137Z,45.20
2018-02-25T18:23:39.614Z,45.50
2018-02-25T18:26:07.070Z,45.60
2018-02-25T18:28:34.521Z,45.70
2018-02-25T18:31:02.560Z,45.80
2018-02-25T18:33:30.021Z,45.50
2018-02-25T18:35:57.484Z,45.90
2018-02-25T18:38:24.927Z,46.10
2018-02-25T18:40:52.811Z,46.20
2018-02-25T18:43:20.546Z,46.00
2018-02-25T18:45:47.980Z,45.80
2018-02-25T18:48:16.205Z,45.30
2018-02-25T18:50:43.666Z,45.30
2018-02-25T18:53:11.122Z,45.20
2018-02-25T18:55:38.578Z,45.40
2018-02-25T18:58:06.853Z,45.40
2018-02-25T19:00:34.311Z,45.60
2018-02-25T19:03:02.148Z,45.90
2018-02-25T19:05:29.595Z,45.50
2018-02-25T19:07:57.058Z,45.70
2018-02-25T19:10:24.914Z,45.50
2018-02-25T19:12:52.354Z,45.70
2018-02-25T19:15:21.102Z,45.60
2018-02-25T19:17:48.559Z,45.60
2018-02-25T19:20:16.013Z,45.40
2018-02-25T19:22:43.469Z,45.60
2018-02-25T19:25:11.353Z,45.70
2018-02-25T19:27:39.397Z,45.60
2018-02-25T19:30:07.827Z,45.70
2018-02-25T19:32:36.053Z,45.70
2018-02-25T19:35:03.774Z,45.70
2018-02-25T19:37:37.000Z,46.00
2018-02-25T19:40:04.455Z,46.50
2018-02-25T19:42:31.954Z,46.60
2018-02-25T19:44:59.423Z,46.50
2018-02-25T19:47:28.167Z,46.50
2018-02-25T19:49:55.617Z,46.50
2018-02-25T19:52:23.846Z,46.90
2018-02-25T19:54:51.324Z,47.60
2018-02-25T19:57:18.783Z,46.70
2018-02-25T19:59:46.671Z,46.80
2018-02-25T20:02:14.155Z,46.80
2018-02-25T20:04:41.978Z,46.70
2018-02-25T20:07:10.060Z,47.00
2018-02-25T20:09:38.061Z,47.00
2018-02-25T20:12:06.282Z,47.60
2018-02-25T20:14:33.741Z,47.20
2018-02-25T20:17:01.193Z,47.40
2018-02-25T20:19:28.661Z,47.30
2018-02-25T20:21:56.104Z,47.40
2018-02-25T20:24:23.913Z,47.40
2018-02-25T20:26:51.372Z,47.30
2018-02-25T20:29:20.158Z,47.30
2018-02-25T20:31:48.078Z,47.30
2018-02-25T20:34:15.971Z,47.60
2018-02-25T20:36:44.013Z,47.40
2018-02-25T20:39:11.469Z,47.30
2018-02-25T20:41:38.931Z,47.50
2018-02-25T20:44:06.393Z,47.70
2018-02-25T20:46:34.269Z,47.80
2018-02-25T20:49:02.438Z,48.10
2018-02-25T20:51:29.910Z,48.70
2018-02-25T20:53:57.379Z,48.30
2018-02-25T20:56:24.806Z,48.20
2018-02-25T20:58:53.677Z,48.00
2018-02-25T21:01:21.134Z,48.00
2018-02-25T21:03:50.429Z,48.10
2018-02-25T21:06:17.933Z,48.50
2018-02-25T21:08:45.945Z,48.50
2018-02-25T21:11:14.227Z,48.60
2018-02-25T21:13:41.670Z,48.90
2018-02-25T21:16:09.698Z,49.10
2018-02-25T21:18:39.621Z,49.20
2018-02-25T21:21:07.081Z,49.60
2018-02-25T21:23:34.753Z,50.00
2018-02-25T21:26:04.514Z,50.10
2018-02-25T21:28:31.957Z,50.10
2018-02-25T21:30:59.408Z,50.60
2018-02-25T21:33:28.762Z,50.80
2018-02-25T21:35:56.653Z,51.20
2018-02-25T21:38:25.270Z,51.70
2018-02-25T21:40:53.141Z,51.70
2018-02-25T21:43:20.610Z,51.90
2018-02-25T21:45:48.063Z,52.00
2018-02-25T21:48:15.549Z,52.20
2018-02-25T21:50:43.623Z,52.50
2018-02-25T21:53:15.673Z,52.80
2018-02-25T21:55:48.805Z,52.70
2018-02-25T21:58:22.073Z,52.60
2018-02-25T22:00:55.950Z,52.80
2018-02-25T22:03:29.109Z,53.30
2018-02-25T22:05:56.552Z,53.40
2018-02-25T22:08:24.720Z,52.40
2018-02-25T22:10:52.166Z,52.10
2018-02-25T22:13:20.405Z,52.10
2018-02-25T22:15:47.982Z,52.10
2018-02-25T22:18:15.857Z,52.40
2018-02-25T22:20:44.445Z,52.60
2018-02-25T22:23:12.651Z,52.90
2018-02-25T22:25:40.101Z,52.90
2018-02-25T22:28:07.566Z,53.10
2018-02-25T22:30:35.022Z,53.60
2018-02-25T22:33:02.474Z,54.90
2018-02-25T22:35:29.970Z,54.60
2018-02-25T22:37:59.541Z,54.80
2018-02-25T22:40:26.992Z,54.60
2018-02-25T22:42:54.447Z,55.10
2018-02-25T22:45:21.912Z,55.60
2018-02-25T22:47:49.746Z,55.80
2018-02-25T22:50:17.958Z,56.60
2018-02-25T22:52:49.235Z,56.60
2018-02-25T22:55:16.711Z,57.20
2018-02-25T22:57:44.922Z,58.00
2018-02-25T23:00:12.419Z,58.00
2018-02-25T23:02:39.870Z,58.60
2018-02-25T23:05:07.769Z,59.10
2018-02-25T23:07:35.997Z,60.30
2018-02-25T23:10:03.442Z,60.20
2018-02-25T23:12:30.890Z,61.10
2018-02-25T23:14:58.796Z,61.90
2018-02-25T23:17:26.233Z,62.30
2018-02-25T23:19:53.699Z,63.10
2018-02-25T23:22:23.579Z,64.10
2018-02-25T23:24:51.037Z,65.00
2018-02-25T23:27:18.489Z,66.10
2018-02-25T23:29:45.945Z,67.00
2018-02-25T23:32:15.199Z,68.80
2018-02-25T23:34:42.697Z,70.80
2018-02-25T23:37:10.157Z,71.90
2018-02-25T23:39:37.831Z,72.70
2018-02-25T23:42:05.690Z,74.00
2018-02-25T23:44:33.141Z,75.40
2018-02-25T23:47:00.951Z,76.90
2018-02-25T23:49:28.393Z,78.30
2018-02-25T23:51:55.850Z,80.40
2018-02-25T23:54:23.309Z,80.10
2018-02-25T23:56:50.771Z,80.00
2018-02-25T23:59:18.493Z,81.00
